Latest Weather Observations for Moomba Airport

IDS60801

Issued at 6:11 pm CDT Thursday 21 February 2019 (issued every 10 minutes, with the page automatically refreshed every 10 minutes)

About weather observations | Map of weather stations | Latest weather observations for SA | Other Formats
Station Details ID: 017123 Name: MOOMBA AIRPORT Lat: -28.10 Lon: 140.20 Height: 37.8 m
Data from the previous 72 hours. | See also: Recent months at Moomba Airport
Date/Time
CDT
Temp
°C
App
Temp
°C
Dew
Point
°C
Rel
Hum
%
Delta-T
°C
Wind Press
QNH
hPa
Press
MSL
hPa
Rain since
9am
mm
Dir  Spd
km/h
Gust
km/h
Spd
kts
Gust
kts
21/06:00pm 32.8 26.2 1.8 14 15.6 SSE 26 35 14 19 1011.8 1011.5 0.0
21/05:30pm 33.0 25.1 0.9 13 15.9 SSE 32 44 17 24 1011.7 1011.4 0.0
21/05:00pm 33.3 25.8 1.2 13 16.0 SSE 30 37 16 20 1011.9 1011.6 0.0
21/04:30pm 33.0 26.2 0.9 13 15.9 S 26 39 14 21 1011.9 1011.6 0.0
21/04:00pm 33.0 25.8 0.9 13 15.9 SSE 28 39 15 21 1012.3 1012.0 0.0
21/03:30pm 33.1 25.9 1.0 13 15.9 SSE 28 39 15 21 1012.7 1012.4 0.0
21/03:00pm 32.7 25.5 0.7 13 15.8 SSE 28 41 15 22 1013.2 1012.9 0.0
21/02:30pm 31.8 25.4 1.0 14 15.2 SSE 24 39 13 21 1013.7 1013.4 0.0
21/02:00pm 31.4 25.3 0.7 14 15.0 SE 22 33 12 18 1014.2 1013.9 0.0
21/01:30pm 31.8 25.8 1.0 14 15.2 SSE 22 35 12 19 1014.5 1014.2 0.0
21/01:00pm 30.8 24.4 1.2 15 14.5 SE 24 35 13 19 1014.9 1014.7 0.0
21/12:30pm 30.9 24.6 1.3 15 14.5 SSE 24 41 13 22 1015.3 1015.1 0.0
21/12:00pm 30.4 24.1 1.8 16 14.1 SE 24 39 13 21 1015.5 1015.3 0.0
21/11:30am 29.8 22.8 2.1 17 13.7 SE 28 37 15 20 1015.8 1015.6 0.0
21/11:00am 28.9 21.8 1.4 17 13.4 SE 28 37 15 20 1016.0 1015.8 0.0
21/10:30am 28.3 20.9 1.7 18 12.9 SE 30 39 16 21 1016.0 1015.8 0.0
21/10:00am 27.2 19.4 1.6 19 12.3 ESE 32 41 17 22 1016.0 1015.8 0.0
21/09:30am 26.4 18.4 1.7 20 11.8 SE 33 43 18 23 1015.8 1015.6 0.0
21/09:00am 24.3 17.7 1.9 23 10.6 SE 26 37 14 20 1015.7 1015.5 0.0
21/08:30am 22.4 16.5 1.4 25 9.7 SE 22 32 12 17 1015.3 1015.1 0.0
21/08:00am 21.9 15.9 1.0 25 9.6 SE 22 32 12 17 1015.3 1015.1 0.0
21/07:30am 20.7 15.2 0.5 26 9.1 SE 19 26 10 14 1014.8 1014.6 0.0
21/07:00am 21.7 15.8 1.4 26 9.4 SE 22 33 12 18 1014.6 1014.4 0.0
21/06:30am 21.6 15.6 1.3 26 9.3 SE 22 32 12 17 1014.3 1014.0 0.0
21/06:00am 20.7 15.3 1.1 27 8.9 SSE 19 24 10 13 1014.1 1013.8 0.0
21/05:30am 20.9 15.5 1.2 27 9.0 S 19 26 10 14 1013.7 1013.4 0.0
21/05:00am 21.2 15.6 1.5 27 9.1 SSE 20 26 11 14 1013.2 1012.9 0.0
21/04:30am 20.8 15.8 1.6 28 8.8 S 17 20 9 11 1013.1 1012.8 0.0
21/04:00am 20.4 16.2 1.8 29 8.6 S 13 17 7 9 1013.1 1012.8 0.0
21/03:30am 20.2 16.4 1.6 29 8.5 S 11 15 6 8 1013.1 1012.8 0.0
21/03:00am 20.5 16.3 1.4 28 8.7 S 13 17 7 9 1013.1 1012.8 0.0
21/02:30am 21.5 17.3 1.7 27 9.2 S 13 17 7 9 1013.2 1012.9 0.0
21/02:00am 21.4 17.6 1.7 27 9.1 S 11 15 6 8 1013.4 1013.1 0.0
21/01:30am 21.6 17.7 1.3 26 9.3 SSW 11 15 6 8 1013.4 1013.1 0.0
21/01:00am 22.2 18.3 1.3 25 9.7 SSW 11 15 6 8 1013.4 1013.1 0.0
21/12:30am 22.9 19.1 1.9 25 9.9 S 11 13 6 7 1013.6 1013.3 0.0
21/12:00am 22.4 18.8 0.3 23 10.0 SSW 9 11 5 6 1013.6 1013.3 0.0
 
Date/Time
CDT
Temp
°C
App
Temp
°C
Dew
Point
°C
Rel
Hum
%
Delta-T
°C
Wind Press
QNH
hPa
Press
MSL
hPa
Rain since
9am
mm
Dir  Spd
km/h
Gust
km/h
Spd
kts
Gust
kts
20/11:30pm 23.6 20.0 0.7 22 10.6 SSW 9 13 5 7 1013.5 1013.2 0.0
20/11:00pm 25.4 21.2 1.5 21 11.4 S 13 17 7 9 1013.5 1013.2 0.0
20/10:30pm 26.4 22.2 1.7 20 11.9 S 13 20 7 11 1013.5 1013.2 0.0
20/10:00pm 26.9 22.6 1.3 19 12.3 S 13 17 7 9 1013.3 1013.0 0.0
20/09:30pm 27.0 22.8 1.4 19 12.3 S 13 17 7 9 1013.0 1012.7 0.0
20/09:00pm 27.6 23.7 1.2 18 12.7 S 11 17 6 9 1012.9 1012.6 0.0
20/08:30pm 28.6 23.9 1.2 17 13.3 S 15 20 8 11 1012.5 1012.2 0.0
20/08:00pm 29.7 24.0 0.3 15 14.1 S 20 30 11 16 1012.1 1011.8 0.0
20/07:30pm 30.6 23.7 0.1 14 14.7 S 26 33 14 18 1011.9 1011.6 0.0
20/07:00pm 31.2 24.7 0.6 14 14.9 S 24 32 13 17 1011.8 1011.5 0.0
20/06:30pm 31.9 25.4 0.1 13 15.4 S 24 37 13 20 1011.5 1011.2 0.0
20/06:00pm 32.0 25.5 0.2 13 15.5 S 24 33 13 18 1011.4 1011.1 0.0
20/05:30pm 32.3 25.7 -0.7 12 15.9 S 24 33 13 18 1011.3 1011.0 0.0
20/05:00pm 32.3 25.7 -0.7 12 15.8 S 24 32 13 17 1011.3 1011.0 0.0
20/04:30pm 31.9 25.6 -1.0 12 15.7 S 22 32 12 17 1011.3 1011.0 0.0
20/04:00pm 32.2 26.5 0.3 13 15.6 SSE 20 30 11 16 1011.7 1011.4 0.0
20/03:30pm 32.1 25.8 -0.9 12 15.8 S 22 35 12 19 1012.1 1011.8 0.0
20/03:00pm 31.9 25.0 0.1 13 15.4 S 26 37 14 20 1012.5 1012.2 0.0
20/02:36pm 32.0 24.9 1.2 14 15.2 S 28 50 15 27 1012.8 1012.5 0.0
20/02:30pm 31.9 25.1 1.1 14 15.2 SSE 26 33 14 18 1012.9 1012.6 0.0
20/02:00pm 31.4 24.6 0.7 14 15.0 SSE 26 39 14 21 1013.2 1012.9 0.0
20/01:30pm 31.3 24.5 0.6 14 15.0 SSE 26 39 14 21 1013.5 1013.2 0.0
20/01:00pm 30.9 23.8 1.3 15 14.6 SSE 28 39 15 21 1013.8 1013.5 0.0
20/12:30pm 29.8 22.3 1.3 16 13.9 SSE 30 41 16 22 1014.2 1013.9 0.0
20/12:00pm 30.1 23.8 1.5 16 14.0 SE 24 30 13 16 1014.7 1014.5 0.0
20/11:42am 29.6 22.5 1.1 16 13.8 SSE 28 46 15 25 1014.9 1014.7 0.0
20/11:30am 28.9 21.4 1.4 17 13.4 SSE 30 43 16 23 1014.9 1014.7 0.0
20/11:00am 28.3 21.5 0.9 17 13.1 SE 26 35 14 19 1014.9 1014.7 0.0
20/10:30am 27.9 21.6 1.4 18 12.8 SE 24 33 13 18 1014.9 1014.7 0.0
20/10:00am 26.9 20.4 0.6 18 12.4 SE 24 33 13 18 1014.9 1014.7 0.0
20/09:30am 25.3 18.1 0.8 20 11.5 SE 28 35 15 19 1014.7 1014.5 0.0
20/09:00am 24.2 18.5 0.5 21 10.9 SE 20 28 11 15 1014.4 1014.1 0.0
20/08:30am 23.0 16.5 0.2 22 10.4 SE 24 32 13 17 1013.9 1013.6 0.0
20/08:00am 21.6 15.9 -1.0 22 9.9 SE 19 24 10 13 1013.3 1013.0 0.0
20/07:30am 20.4 16.1 -1.4 23 9.4 SSE 11 19 6 10 1013.0 1012.7 0.0
20/07:00am 20.2 14.8 -1.6 23 9.4 SE 17 20 9 11 1012.5 1012.2 0.0
20/06:30am 20.9 15.9 -1.0 23 9.6 SE 15 22 8 12 1012.3 1012.0 0.0
20/06:00am 19.4 14.6 -2.2 23 9.1 S 13 20 7 11 1012.2 1011.9 0.0
20/05:30am 20.0 15.2 -2.3 22 9.4 S 13 20 7 11 1011.8 1011.5 0.0
20/05:00am 20.4 14.8 -2.6 21 9.7 S 17 22 9 12 1011.7 1011.4 0.0
20/04:30am 20.6 15.8 -2.5 21 9.8 S 13 22 7 12 1011.6 1011.3 0.0
20/04:00am 20.6 15.8 -2.5 21 9.8 S 13 19 7 10 1011.2 1010.9 0.0
20/03:30am 21.7 16.2 -2.2 20 10.3 S 17 20 9 11 1011.0 1010.7 0.0
20/03:00am 21.4 16.6 -2.5 20 10.2 S 13 19 7 10 1011.1 1010.8 0.0
20/02:30am 21.9 16.7 -2.7 19 10.5 S 15 19 8 10 1011.3 1011.0 0.0
20/02:00am 22.2 17.4 -2.5 19 10.6 S 13 17 7 9 1011.6 1011.3 0.0
20/01:30am 23.0 18.2 -2.6 18 11.0 S 13 19 7 10 1011.7 1011.4 0.0
20/01:00am 23.4 18.6 -2.2 18 11.2 S 13 17 7 9 1011.7 1011.4 0.0
20/12:30am 24.4 19.6 -2.2 17 11.7 S 13 17 7 9 1011.7 1011.4 0.0
20/12:00am 23.8 19.5 -1.9 18 11.3 SSW 11 13 6 7 1011.9 1011.6 0.0
 
Date/Time
CDT
Temp
°C
App
Temp
°C
Dew
Point
°C
Rel
Hum
%
Delta-T
°C
Wind Press
QNH
hPa
Press
MSL
hPa
Rain since
9am
mm
Dir  Spd
km/h
Gust
km/h
Spd
kts
Gust
kts
19/11:30pm 24.9 20.6 -1.8 17 11.9 SSW 11 13 6 7 1012.0 1011.7 0.0
19/11:00pm 25.6 21.2 -2.1 16 12.3 SSW 11 15 6 8 1012.0 1011.7 0.0
19/10:30pm 26.0 22.1 -1.7 16 12.5 SSW 9 13 5 7 1011.9 1011.6 0.0
19/10:00pm 27.4 23.0 -2.4 14 13.4 S 11 15 6 8 1011.6 1011.3 0.0
19/09:30pm 28.4 23.3 -1.6 14 13.8 S 15 19 8 10 1011.2 1010.9 0.0
19/09:00pm 28.9 23.8 -2.3 13 14.2 S 15 19 8 10 1010.8 1010.5 0.0
19/08:30pm 29.7 23.9 -1.6 13 14.5 S 19 26 10 14 1010.5 1010.2 0.0
19/08:00pm 30.3 23.5 -2.2 12 15.0 S 24 32 13 17 1010.2 1009.9 0.0
19/07:30pm 31.1 23.3 -0.5 13 15.1 S 30 37 16 20 1009.9 1009.6 0.0
19/07:00pm 31.8 24.5 0.0 13 15.4 S 28 35 15 19 1009.6 1009.3 0.0
19/06:30pm 32.5 25.4 1.6 14 15.5 S 28 39 15 21 1009.3 1009.0 0.0
19/06:00pm 32.9 26.3 1.9 14 15.6 S 26 35 14 19 1009.1 1008.8 0.0
19/05:30pm 33.3 26.7 2.2 14 15.8 S 26 41 14 22 1008.8 1008.5 0.0
19/05:00pm 33.3 27.1 4.1 16 15.3 S 26 37 14 20 1008.7 1008.4 0.0
19/04:30pm 33.0 27.4 5.5 18 14.7 S 24 35 13 19 1008.8 1008.5 0.0
19/04:00pm 33.6 28.7 6.8 19 14.7 S 22 33 12 18 1008.8 1008.5 0.0
19/03:30pm 34.1 29.3 7.2 19 14.9 S 22 33 12 18 1009.0 1008.7 0.0
19/03:00pm 32.9 28.0 7.0 20 14.2 S 22 32 12 17 1009.3 1009.0 0.0
19/02:30pm 33.0 27.4 7.1 20 14.2 SSE 26 35 14 19 1009.5 1009.2 0.0
19/02:00pm 31.8 25.7 6.8 21 13.6 SSE 28 39 15 21 1009.6 1009.3 0.0
19/01:30pm 31.6 25.5 6.6 21 13.5 S 28 37 15 20 1009.8 1009.5 0.0
19/01:00pm 30.8 24.3 6.6 22 13.0 S 30 39 16 21 1010.1 1009.8 0.0
19/12:30pm 30.1 23.3 6.7 23 12.6 SSE 32 43 17 23 1010.3 1010.0 0.0
19/12:00pm 29.5 22.5 6.8 24 12.2 SSE 33 44 18 24 1010.5 1010.2 0.0
19/11:30am 29.3 22.8 6.7 24 12.1 S 30 35 16 19 1010.6 1010.3 0.0
19/11:17am 28.6 21.8 6.7 25 11.6 SSE 32 44 17 24 1010.6 1010.3 0.0
19/11:00am 28.0 20.9 6.2 25 11.5 SSE 33 39 18 21 1010.8 1010.5 0.0
19/10:30am 27.4 20.4 6.2 26 11.1 SSE 32 43 17 23 1010.7 1010.4 0.0
19/10:09am 27.1 20.0 6.5 27 10.8 SSE 33 44 18 24 1010.6 1010.3 0.0
19/10:00am 27.1 20.0 6.5 27 10.8 SSE 33 43 18 23 1010.6 1010.3 0.0
19/09:30am 26.8 19.8 6.8 28 10.6 SSE 33 43 18 23 1010.5 1010.2 0.0
19/09:00am 26.3 19.7 7.8 31 9.9 SSE 32 43 17 23 1010.2 1009.9 0.0
19/08:30am 26.1 19.6 8.1 32 9.7 SSE 32 39 17 21 1009.9 1009.6 0.0
19/08:00am 25.8 21.2 8.3 33 9.4 SSE 22 32 12 17 1009.6 1009.3 0.0
19/07:30am 25.7 21.5 8.2 33 9.4 S 20 28 11 15 1009.4 1009.1 0.0
19/07:00am 25.9 21.0 8.4 33 9.4 SSE 24 30 13 16 1008.5 1008.2 0.0
19/06:30am 26.3 21.9 8.8 33 9.5 SSE 22 35 12 19 1008.3 1008.0 0.0
19/06:00am 27.0 21.8 8.9 32 9.9 S 26 33 14 18 1007.9 1007.6 0.0
19/05:30am 27.7 22.5 9.0 31 10.3 S 26 35 14 19 1007.5 1007.2 0.0
19/05:00am 28.5 23.4 9.2 30 10.7 SSE 26 37 14 20 1007.1 1006.8 0.0
19/04:30am 29.0 24.7 9.2 29 11.0 S 22 32 12 17 1006.7 1006.4 0.0
19/04:26am 29.1 24.8 9.3 29 11.0 S 22 32 12 17 1006.7 1006.4 0.0
19/04:06am 29.9 24.5 9.4 28 11.5 S 28 43 15 23 1006.5 1006.2 0.0
19/04:00am 29.7 24.9 8.7 27 11.6 S 24 33 13 18 1006.5 1006.2 0.0
19/03:30am 29.5 25.2 8.0 26 11.8 S 20 26 11 14 1006.4 1006.1 0.0
19/03:00am 29.1 26.0 7.1 25 11.8 S 13 17 7 9 1006.4 1006.1 0.0
19/02:30am 29.5 26.4 7.4 25 12.0 SSW 13 17 7 9 1006.5 1006.2 0.0
19/02:00am 30.5 26.7 7.7 24 12.5 SSW 17 22 9 12 1006.5 1006.2 0.0
19/01:30am 30.9 27.2 8.0 24 12.6 SSW 17 22 9 12 1006.6 1006.3 0.0
19/01:00am 30.4 25.9 4.2 19 13.5 SSW 17 19 9 10 1006.7 1006.4 0.0
19/12:30am 30.3 26.3 0.8 15 14.4 SSW 11 13 6 7 1006.5 1006.2 0.0
19/12:00am 30.6 26.0 -0.9 13 14.9 WSW 13 13 7 7 1006.5 1006.2 0.0
 
Date/Time
CDT
Temp
°C
App
Temp
°C
Dew
Point
°C
Rel
Hum
%
Delta-T
°C
Wind Press
QNH
hPa
Press
MSL
hPa
Rain since
9am
mm
Dir  Spd
km/h
Gust
km/h
Spd
kts
Gust
kts
18/11:30pm 31.4 26.6 -2.6 11 15.7 WSW 13 17 7 9 1006.4 1006.1 0.0
18/11:00pm 32.0 26.9 -2.1 11 16.0 WSW 15 17 8 9 1006.4 1006.1 0.0
18/10:30pm 33.9 29.2 -2.0 10 17.1 W 13 15 7 8 1006.1 1005.8 0.0
18/10:00pm 33.5 29.5 -2.3 10 16.9 WSW 9 9 5 5 1005.7 1005.4 0.0
18/09:30pm 34.3 30.8 -1.7 10 17.3 SW 7 9 4 5 1005.4 1005.1 0.0
18/09:00pm 35.8 31.7 -0.5 10 18.0 WSW 11 13 6 7 1005.1 1004.8 0.0
18/08:30pm 36.9 33.6 -1.1 9 18.7 W 6 7 3 4 1004.7 1004.4 0.0
18/08:00pm 38.7 35.0 0.2 9 19.5 SW 9 11 5 6 1004.4 1004.1 0.0
18/07:30pm 40.4 36.3 -0.2 8 20.8 SW 11 15 6 8 1004.1 1003.8 0.0
18/07:00pm 41.1 36.3 0.3 8 21.0 WSW 15 19 8 10 1004.0 1003.7 0.0
18/06:30pm 41.6 37.3 0.7 8 21.3 WSW 13 20 7 11 1003.7 1003.4 0.0

Other formats

Comma delimited format used in spreadsheet applications
http://www.bom.gov.au/fwo/IDS60801/IDS60801.95481.axf

JavaScript Object Notation format (JSON) in row-major order
http://www.bom.gov.au/fwo/IDS60801/IDS60801.95481.json

Data quality

Most of these data are generated automatically and are frequently updated. Quality checks on data are not normally performed. It is possible for incorrect values to appear. Refer to information at About Latest Weather Observations and please check the disclaimer before using these data.